Flight Track Log - Related Links

Times and Time Zones

All times are in EDT time to prevent confusion due to time zone crossing. See the PDT4425 flight status page for this flight to view local times or setup timezone preferences in your user account.

Time Position Orientation Groundspeed Altitude Reporting Facility
EDT Latitude Longitude Course Direction KTS MPH feet Rate Location/Type
Sun 07:58:57 PM 32.3200 -80.6531 23° Northeast 174 200 3,100  Level Jacksonville Center
Sun 07:59:57 PM 32.3656 -80.6297 23° Northeast 174 200 4,000 900 Climbing Jacksonville Center
Sun 08:00:57 PM 32.4069 -80.6117 20° North 174 200 4,900 1,000 Climbing Jacksonville Center
Sun 08:01:57 PM 32.4586 -80.5881 21° North 174 200 6,000 1,000 Climbing Jacksonville Center
Sun 08:02:57 PM 32.5000 -80.5650 25° Northeast 174 200 6,900 1,050 Climbing Jacksonville Center
Sun 08:03:57 PM 32.5497 -80.5414 22° Northeast 174 200 8,100 1,000 Climbing Jacksonville Center
Sun 08:04:57 PM 32.5994 -80.5228 18° North 166 191 8,900 800 Climbing Jacksonville Center
Sun 08:05:57 PM 32.6428 -80.4969 27° Northeast 182 209 9,700 800 Climbing Jacksonville Center
Sun 08:06:57 PM 32.6925 -80.4686 26° Northeast 182 209 10,500 800 Climbing Jacksonville Center
Sun 08:07:57 PM 32.7439 -80.4400 25° Northeast 182 209 11,300 800 Climbing Jacksonville Center
Sun 08:08:57 PM 32.7956 -80.4139 23° Northeast 193 222 12,100 750 Climbing Jacksonville Center
Sun 08:09:57 PM 32.8472 -80.3878 23° Northeast 193 222 12,800 650 Climbing Jacksonville Center
Sun 08:10:57 PM 32.8947 -80.3567 29° Northeast 193 222 13,400 600 Climbing Jacksonville Center
Sun 08:11:57 PM 32.9400 -80.3258 30° Northeast 201 231 14,000 650 Climbing Jacksonville Center
Sun 08:12:57 PM 32.9917 -80.3019 21° North 201 231 14,700 500 Climbing Jacksonville Center
Sun 08:13:57 PM 33.0414 -80.2758 24° Northeast 190 219 15,000 150 Climbing Jacksonville Center
Sun 08:14:57 PM 33.1011 -80.2444 24° Northeast 195 224 15,000  Level Jacksonville Center
Sun 08:15:57 PM 33.1592 -80.2228 17° North 210 242 15,000  Level Jacksonville Center
Sun 08:16:57 PM 33.2169 -80.1936 23° Northeast 215 247 15,000  Level Jacksonville Center
Sun 08:17:57 PM 33.2747 -80.1597 26° Northeast 220 253 15,000  Level Jacksonville Center
Sun 08:18:57 PM 33.3325 -80.1331 21° North 220 253 15,000  Level Jacksonville Center
Sun 08:19:57 PM 33.3925 -80.1039 22° Northeast 225 259 15,000  Level Jacksonville Center
Sun 08:20:57 PM 33.4522 -80.0744 22° Northeast 225 259 15,000  Level Jacksonville Center
Sun 08:21:57 PM 33.4978 -80.0506 24° Northeast 225 259 15,000  Level Jacksonville Center
Sun 08:22:57 PM 33.5594 -80.0164 25° Northeast 230 265 15,000 -150 Level Jacksonville Center
Sun 08:23:57 PM 33.6192 -79.9844 24° Northeast 230 265 14,700 -400 Descending Jacksonville Center
Sun 08:24:57 PM 33.6833 -79.9525 23° Northeast 235 270 14,200 -500 Descending Jacksonville Center
Sun 08:25:57 PM 33.7469 -79.9153 26° Northeast 240 276 13,700 -800 Descending Jacksonville Center
Sun 08:26:57 PM 33.8283 -79.9175 359° North 245 282 12,600 -1,100 Descending Jacksonville Center
Sun 08:27:57 PM 33.9017 -79.9225 357° North 256 295 11,500 -1,000 Descending Jacksonville Center
Sun 08:28:57 PM 33.9669 -79.9453 344° North 251 289 10,600 -750 Descending Jacksonville Center
Sun 08:29:57 PM 34.0278 -79.9608 348° North 235 270 10,000 -300 Descending Jacksonville Center
Sun 08:30:57 PM 34.0903 -79.9664 356° North 223 257 10,000 50 Level Jacksonville Center
Sun 08:31:57 PM 34.1508 -79.9667 360° North 218 251 10,100  Climbing Jacksonville Center
Sun 08:32:57 PM 34.2128 -79.9394 20° North 218 251 10,000  Descending Jacksonville Center
Sun 08:33:57 PM 34.2769 -79.9147 18° North 223 257 10,100  Climbing Jacksonville Center
Sun 08:35:00 PM 34.3274 -79.9696 301° West  Level Estimated
Sun 08:39:01 PM 34.5211 -80.1386 314° West 229 264 10,000  Level Atlanta Center
Sun 08:40:02 PM 34.5708 -80.1919 319° Northwest 230 265 10,000  Level Atlanta Center
Sun 08:41:03 PM 34.6206 -80.2425 320° Northwest 234 269 10,000  Level Atlanta Center
Sun 08:42:00 PM 34.6779 -80.3225 301° West  Level FlightAware Approximate
Sun 08:42:05 PM 34.6683 -80.3036 314° West 233 268 10,000  Level Atlanta Center
Sun 08:43:00 PM 34.7262 -80.3660 314° West  Level FlightAware Approximate
Sun 08:43:05 PM 34.7158 -80.3594 316° Northwest 232 267 10,000  Level Atlanta Center
Sun 08:44:00 PM 34.7713 -80.4223 314° West  Level FlightAware Approximate
Sun 08:44:12 PM 34.7614 -80.4208 312° West 230 265 10,000  Level Atlanta Center
Sun 08:45:07 PM 34.8006 -80.4722 313° West 230 265 9,600 -469 Descending Atlanta Center
Sun 08:46:20 PM 34.8569 -80.5456 313° West 241 277 9,000 -269 Descending Atlanta Center
Sun 08:47:21 PM 34.9064 -80.5992 318° Northwest 237 273 9,000  Level Atlanta Center
Sun 08:48:11 PM 34.9433 -80.6458 314° West 232 267 9,000  Level Atlanta Center
Sun 08:49:17 PM 35.0069 -80.6917 329° Northwest 238 274 9,000 47 Level Atlanta Center
Sun 08:50:18 PM 35.0647 -80.7400 326° Northwest 241 277 9,100  Climbing Atlanta Center
Sun 08:51:25 PM 35.0875 -80.8178 290° West 224 258 9,000 -47 Descending Atlanta Center
Sun 08:52:26 PM 35.0897 -80.8939 272° West 224 258 9,000  Level Atlanta Center
Sun 08:53:21 PM 35.1439 -80.8917 North 254 292 9,000 -443 Level Atlanta Center
Sun 08:54:28 PM 35.2178 -80.8508 24° Northeast 266 306 8,100 -1,082 Descending Atlanta Center
Sun 08:55:23 PM 35.2800 -80.8331 13° North 262 302 6,800 -1,473 Descending Atlanta Center
Sun 08:56:18 PM 35.3447 -80.8331 360° North 239 275 5,400 -1,397 Descending Atlanta Center
Sun 08:57:19 PM 35.4094 -80.8383 356° North 228 262 4,100 -689 Descending Atlanta Center
Sun 08:58:20 PM 35.4719 -80.8383 360° North 227 261 4,000 -49 Descending Atlanta Center
Sun 08:59:21 PM 35.5367 -80.8358 North 232 267 4,000  Level Atlanta Center
Sun 09:00:21 PM 35.5833 -80.8594 338° Northwest 178 205 4,000  Level Atlanta Center
Sun 09:01:23 PM 35.5742 -80.9186 259° West 168 193 4,000  Level Atlanta Center
Sun 09:02:18 PM 35.5419 -80.9556 223° Southwest 180 207 4,000  Level Atlanta Center
Sun 09:03:25 PM 35.4900 -80.9628 186° South 186 214 4,000  Level Atlanta Center
Sun 09:04:26 PM 35.4333 -80.9597 177° South 187 215 4,000 -98 Level Atlanta Center
Sun 09:05:27 PM 35.3833 -80.9539 175° South 184 212 3,800 -590 Descending Atlanta Center
Sun 09:06:28 PM 35.3331 -80.9481 175° South 182 209 2,800 -885 Descending Atlanta Center
Sun 09:07:29 PM 35.2933 -80.9444 176° South 148 170 2,000 -689 Descending Atlanta Center
Sun 09:08:30 PM 35.2578 -80.9433 179° South 112 129 1,400 -590 Descending Atlanta Center

Login

Don't have an account? Register now (free) for customized features, flight alerts, and more!